Laura B — WDI9376 — position and weather

sailwx.info

Track history (hours):
 
Tides and Currents Weather Stations Pressure Air Temp Water Temp Dewpoint Dewpoint Depression Visibility Wind Speed Wind Dir Waves Ship Positions

Laura B

Owner: G & H TOWING COMPANY, Galveston, TX. More information available from US FCC via Universal Licensing System and Coast Guard Vessel Documentation Center.

Last reported at 2018-Feb-25 21:12 UTC. Time now 2018-Feb-25 21:57 UTC.
Position N 29°45' W 095°07'.

Length 24 m; draft 4.9 m.

Type: Tug. MMSI: 367748030.

Date/timePositionNaut miles runAvg speedWind from/ knotsBaromVisibWave heightAir tempDewpointWater temp
2018-Feb-25 21:12N 29°45' W 095°07'3 4.1
2018-Feb-25 20:26N 29°44' W 095°03'2 0.8
2018-Feb-25 17:27N 29°42' W 095°01'1 1.5
2018-Feb-25 16:42N 29°43' W 095°01'1 3.4
2018-Feb-25 16:21N 29°42' W 095°01'2 6.3
2018-Feb-25 16:00N 29°41' W 094°59'1 0.6
2018-Feb-25 14:48N 29°41' W 094°60'1 1.8
2018-Feb-25 14:30N 29°41' W 095°00'1 1.6
2018-Feb-25 14:00N 29°41' W 094°59'3 4.7
2018-Feb-25 13:28N 29°39' W 094°58'2 3.6
2018-Feb-25 12:56N 29°37' W 094°58'2 4.0
2018-Feb-25 12:30N 29°37' W 094°60'0 0.6
2018-Feb-25 11:51N 29°37' W 095°00'0 0.0
2018-Feb-25 11:30N 29°37' W 095°00'0 0.0
2018-Feb-25 10:30N 29°37' W 095°00'1 1.6
2018-Feb-25 10:01N 29°37' W 095°01'0 0.6
2018-Feb-25 09:31N 29°37' W 095°01'1 2.1
2018-Feb-25 09:01N 29°37' W 094°60'0 0.2
2018-Feb-25 08:29N 29°37' W 095°00'2 3.4
2018-Feb-25 07:59N 29°37' W 094°58'1 2.3
2018-Feb-25 07:29N 29°37' W 094°59'0 0.1
2018-Feb-25 06:57N 29°37' W 094°59'0 0.0
2018-Feb-25 06:30N 29°37' W 094°59'1 1.0
2018-Feb-25 06:00N 29°37' W 095°00'0 0.1
2018-Feb-25 05:30N 29°37' W 094°60'0 0.0
2018-Feb-25 05:00N 29°37' W 094°60'2 3.3
2018-Feb-25 04:29N 29°37' W 094°58'2 4.1
2018-Feb-25 04:00N 29°37' W 095°00'0 0.2
2018-Feb-25 03:31N 29°37' W 095°00'3 5.0
2018-Feb-25 03:00N 29°38' W 094°58'3 6.4
2018-Feb-25 02:30N 29°41' W 095°00'0 0.2
2018-Feb-25 02:00N 29°41' W 095°00'1 2.6
2018-Feb-25 01:30N 29°41' W 094°59'0 0.6
2018-Feb-25 01:00N 29°41' W 094°59'1 2.6
2018-Feb-25 00:30N 29°41' W 095°00'0 0.6
2018-Feb-25 00:00N 29°41' W 095°00'0 0.4
2018-Feb-24 23:24N 29°41' W 094°60'0 0.4
2018-Feb-24 23:01N 29°41' W 094°60'1 1.3
2018-Feb-24 22:31N 29°41' W 094°59'2 3.0
2018-Feb-24 22:00N 29°42' W 095°01'4 7.1
2018-Feb-24 21:30N 29°44' W 095°04'2 1.5
2018-Feb-24 20:11N 29°45' W 095°06'1 3.9
2018-Feb-24 19:58N 29°46' W 095°05'7 4.3
2018-Feb-24 18:24N 29°44' W 095°12'1 0.1
2018-Feb-24 04:41N 29°44' W 095°13'0 1.0
2018-Feb-24 04:27N 29°44' W 095°13'1 0.7
2018-Feb-24 03:43N 29°44' W 095°14'2 0.3
2018-Feb-23 20:38N 29°44' W 095°16'2 0.6
2018-Feb-23 17:26N 29°43' W 095°14'6 1.2
2018-Feb-23 12:16N 29°44' W 095°07'0 0.0
2018-Feb-23 11:58N 29°44' W 095°07'0 0.0
2018-Feb-23 11:25N 29°44' W 095°07'0 0.0
2018-Feb-23 10:52N 29°44' W 095°07'0 0.0
2018-Feb-23 10:16N 29°44' W 095°07'0 0.0
2018-Feb-23 09:49N 29°44' W 095°07'0 0.0
2018-Feb-23 08:04N 29°44' W 095°07'0 0.0
2018-Feb-23 07:46N 29°44' W 095°07'0 0.0
2018-Feb-23 06:22N 29°44' W 095°07'0 0.0
2018-Feb-23 06:00N 29°44' W 095°07'1 0.5
2018-Feb-23 04:53N 29°45' W 095°06'0 0.0
2018-Feb-22 18:18N 29°45' W 095°06'0 0.4
2018-Feb-22 17:59N 29°45' W 095°06'  
2018-Feb-20 09:30N 29°44' W 095°03'8 7.1
2018-Feb-20 08:22N 29°44' W 095°12'6 7.6
2018-Feb-20 07:35N 29°46' W 095°05'0 1.7
2018-Feb-20 07:23N 29°46' W 095°05'2 4.4
2018-Feb-20 06:56N 29°44' W 095°07'0 0.0
2018-Feb-20 00:51N 29°44' W 095°07'1 0.1
2018-Feb-19 18:28N 29°45' W 095°06'1 0.2
2018-Feb-19 15:16N 29°44' W 095°07'0 0.0
2018-Feb-19 09:31N 29°45' W 095°07'0 0.0
2018-Feb-19 09:16N 29°45' W 095°07'0 0.0
2018-Feb-19 08:23N 29°45' W 095°07'0 0.0
2018-Feb-19 07:58N 29°45' W 095°07'0 0.0
2018-Feb-19 07:28N 29°45' W 095°07'0 0.0
2018-Feb-19 06:58N 29°45' W 095°07'0 0.0
2018-Feb-19 06:25N 29°45' W 095°07'0 0.0
2018-Feb-19 05:59N 29°45' W 095°07'0 0.0
2018-Feb-19 05:28N 29°45' W 095°07'0 0.0
2018-Feb-19 04:16N 29°45' W 095°07'0 0.0
2018-Feb-19 03:46N 29°45' W 095°07'0 0.0
2018-Feb-19 03:28N 29°45' W 095°07'0 0.0
2018-Feb-19 02:28N 29°45' W 095°07'0 0.0
2018-Feb-19 01:34N 29°45' W 095°07'0 0.0
2018-Feb-19 01:28N 29°45' W 095°07'0 0.0
2018-Feb-19 00:10N 29°45' W 095°07'0 0.0
2018-Feb-18 16:10N 29°45' W 095°07'0 0.0
2018-Feb-18 15:54N 29°45' W 095°07'0 0.0
2018-Feb-18 04:30N 29°44' W 095°07'0 0.2
2018-Feb-18 02:57N 29°44' W 095°06'4 0.9
2018-Feb-17 23:10N 29°45' W 095°10'1 0.1
2018-Feb-16 18:46N 29°44' W 095°12'0 0.5
2018-Feb-16 18:26N 29°44' W 095°12'0 0.0
2018-Feb-16 17:58N 29°44' W 095°12'1 0.7
2018-Feb-16 16:38N 29°44' W 095°13'  
Track history (hours):
 
Tides and Currents Weather Stations Pressure Air Temp Water Temp Dewpoint Dewpoint Depression Visibility Wind Speed Wind Dir Waves Ship Positions

Laura B

Owner: G & H TOWING COMPANY, Galveston, TX. More information available from US FCC via Universal Licensing System and Coast Guard Vessel Documentation Center.

Last reported at 2018-Feb-25 21:12 UTC. Time now 2018-Feb-25 21:57 UTC.
Position N 29°45' W 095°07'.

Length 24 m; draft 4.9 m.

Type: Tug. MMSI: 367748030.

Date/timePositionNaut miles runAvg speedWind from/ knotsBaromVisibWave heightAir tempDewpointWater temp
2018-Feb-25 21:12N 29°45' W 095°07'3 4.1
2018-Feb-25 20:26N 29°44' W 095°03'2 0.8
2018-Feb-25 17:27N 29°42' W 095°01'1 1.5
2018-Feb-25 16:42N 29°43' W 095°01'1 3.4
2018-Feb-25 16:21N 29°42' W 095°01'2 6.3
2018-Feb-25 16:00N 29°41' W 094°59'1 0.6
2018-Feb-25 14:48N 29°41' W 094°60'1 1.8
2018-Feb-25 14:30N 29°41' W 095°00'1 1.6
2018-Feb-25 14:00N 29°41' W 094°59'3 4.7
2018-Feb-25 13:28N 29°39' W 094°58'2 3.6
2018-Feb-25 12:56N 29°37' W 094°58'2 4.0
2018-Feb-25 12:30N 29°37' W 094°60'0 0.6
2018-Feb-25 11:51N 29°37' W 095°00'0 0.0
2018-Feb-25 11:30N 29°37' W 095°00'0 0.0
2018-Feb-25 10:30N 29°37' W 095°00'1 1.6
2018-Feb-25 10:01N 29°37' W 095°01'0 0.6
2018-Feb-25 09:31N 29°37' W 095°01'1 2.1
2018-Feb-25 09:01N 29°37' W 094°60'0 0.2
2018-Feb-25 08:29N 29°37' W 095°00'2 3.4
2018-Feb-25 07:59N 29°37' W 094°58'1 2.3
2018-Feb-25 07:29N 29°37' W 094°59'0 0.1
2018-Feb-25 06:57N 29°37' W 094°59'0 0.0
2018-Feb-25 06:30N 29°37' W 094°59'1 1.0
2018-Feb-25 06:00N 29°37' W 095°00'0 0.1
2018-Feb-25 05:30N 29°37' W 094°60'0 0.0
2018-Feb-25 05:00N 29°37' W 094°60'2 3.3
2018-Feb-25 04:29N 29°37' W 094°58'2 4.1
2018-Feb-25 04:00N 29°37' W 095°00'0 0.2
2018-Feb-25 03:31N 29°37' W 095°00'3 5.0
2018-Feb-25 03:00N 29°38' W 094°58'3 6.4
2018-Feb-25 02:30N 29°41' W 095°00'0 0.2
2018-Feb-25 02:00N 29°41' W 095°00'1 2.6
2018-Feb-25 01:30N 29°41' W 094°59'0 0.6
2018-Feb-25 01:00N 29°41' W 094°59'1 2.6
2018-Feb-25 00:30N 29°41' W 095°00'0 0.6
2018-Feb-25 00:00N 29°41' W 095°00'0 0.4
2018-Feb-24 23:24N 29°41' W 094°60'0 0.4
2018-Feb-24 23:01N 29°41' W 094°60'1 1.3
2018-Feb-24 22:31N 29°41' W 094°59'2 3.0
2018-Feb-24 22:00N 29°42' W 095°01'4 7.1
2018-Feb-24 21:30N 29°44' W 095°04'2 1.5
2018-Feb-24 20:11N 29°45' W 095°06'1 3.9
2018-Feb-24 19:58N 29°46' W 095°05'7 4.3
2018-Feb-24 18:24N 29°44' W 095°12'1 0.1
2018-Feb-24 04:41N 29°44' W 095°13'0 1.0
2018-Feb-24 04:27N 29°44' W 095°13'1 0.7
2018-Feb-24 03:43N 29°44' W 095°14'2 0.3
2018-Feb-23 20:38N 29°44' W 095°16'2 0.6
2018-Feb-23 17:26N 29°43' W 095°14'6 1.2
2018-Feb-23 12:16N 29°44' W 095°07'0 0.0
2018-Feb-23 11:58N 29°44' W 095°07'0 0.0
2018-Feb-23 11:25N 29°44' W 095°07'0 0.0
2018-Feb-23 10:52N 29°44' W 095°07'0 0.0
2018-Feb-23 10:16N 29°44' W 095°07'0 0.0
2018-Feb-23 09:49N 29°44' W 095°07'0 0.0
2018-Feb-23 08:04N 29°44' W 095°07'0 0.0
2018-Feb-23 07:46N 29°44' W 095°07'0 0.0
2018-Feb-23 06:22N 29°44' W 095°07'0 0.0
2018-Feb-23 06:00N 29°44' W 095°07'1 0.5
2018-Feb-23 04:53N 29°45' W 095°06'0 0.0
2018-Feb-22 18:18N 29°45' W 095°06'0 0.4
2018-Feb-22 17:59N 29°45' W 095°06'  
2018-Feb-20 09:30N 29°44' W 095°03'8 7.1
2018-Feb-20 08:22N 29°44' W 095°12'6 7.6
2018-Feb-20 07:35N 29°46' W 095°05'0 1.7
2018-Feb-20 07:23N 29°46' W 095°05'2 4.4
2018-Feb-20 06:56N 29°44' W 095°07'0 0.0
2018-Feb-20 00:51N 29°44' W 095°07'1 0.1
2018-Feb-19 18:28N 29°45' W 095°06'1 0.2
2018-Feb-19 15:16N 29°44' W 095°07'0 0.0
2018-Feb-19 09:31N 29°45' W 095°07'0 0.0
2018-Feb-19 09:16N 29°45' W 095°07'0 0.0
2018-Feb-19 08:23N 29°45' W 095°07'0 0.0
2018-Feb-19 07:58N 29°45' W 095°07'0 0.0
2018-Feb-19 07:28N 29°45' W 095°07'0 0.0
2018-Feb-19 06:58N 29°45' W 095°07'0 0.0
2018-Feb-19 06:25N 29°45' W 095°07'0 0.0
2018-Feb-19 05:59N 29°45' W 095°07'0 0.0
2018-Feb-19 05:28N 29°45' W 095°07'0 0.0
2018-Feb-19 04:16N 29°45' W 095°07'0 0.0
2018-Feb-19 03:46N 29°45' W 095°07'0 0.0
2018-Feb-19 03:28N 29°45' W 095°07'0 0.0
2018-Feb-19 02:28N 29°45' W 095°07'0 0.0
2018-Feb-19 01:34N 29°45' W 095°07'0 0.0
2018-Feb-19 01:28N 29°45' W 095°07'0 0.0
2018-Feb-19 00:10N 29°45' W 095°07'0 0.0
2018-Feb-18 16:10N 29°45' W 095°07'0 0.0
2018-Feb-18 15:54N 29°45' W 095°07'0 0.0
2018-Feb-18 04:30N 29°44' W 095°07'0 0.2
2018-Feb-18 02:57N 29°44' W 095°06'4 0.9
2018-Feb-17 23:10N 29°45' W 095°10'1 0.1
2018-Feb-16 18:46N 29°44' W 095°12'0 0.5
2018-Feb-16 18:26N 29°44' W 095°12'0 0.0
2018-Feb-16 17:58N 29°44' W 095°12'1 0.7
2018-Feb-16 16:38N 29°44' W 095°13'  

Dump ship's entire track history